createdAt,value
2022-11-17T00:01:26.191Z,7.88
2022-11-17T00:03:54.411Z,9.98
2022-11-17T00:06:24.152Z,9.02
2022-11-17T00:08:53.621Z,7.43
2022-11-17T00:11:21.833Z,9.07
2022-11-17T00:14:08.698Z,8.00
2022-11-17T00:16:37.142Z,8.20
2022-11-17T00:19:23.869Z,7.65
2022-11-17T00:21:53.823Z,7.25
2022-11-17T00:24:24.404Z,9.43
2022-11-17T00:27:04.449Z,8.15
2022-11-17T00:29:34.509Z,10.40
2022-11-17T00:32:24.811Z,9.10
2022-11-17T00:34:53.952Z,9.35
2022-11-17T00:37:24.406Z,8.13
2022-11-17T00:39:57.762Z,7.72
2022-11-17T00:42:28.768Z,9.05
2022-11-17T00:44:56.934Z,8.27
2022-11-17T00:47:25.241Z,9.00
2022-11-17T00:49:53.419Z,9.23
2022-11-17T00:52:23.259Z,8.20
2022-11-17T00:54:51.469Z,7.95
2022-11-17T00:57:19.763Z,7.80
2022-11-17T00:59:47.828Z,7.20
2022-11-17T01:02:16.130Z,8.25
2022-11-17T01:04:44.252Z,8.02
2022-11-17T01:07:12.584Z,7.15
2022-11-17T01:09:42.347Z,9.90
2022-11-17T01:12:10.749Z,6.65
2022-11-17T01:14:38.913Z,7.50
2022-11-17T01:17:07.069Z,6.95
2022-11-17T01:19:34.852Z,8.77
2022-11-17T01:22:02.700Z,7.25
2022-11-17T01:24:30.571Z,9.75
2022-11-17T01:26:59.961Z,7.38
2022-11-17T01:29:27.810Z,7.63
2022-11-17T01:31:55.728Z,6.75
2022-11-17T01:34:23.509Z,7.88
2022-11-17T01:37:10.089Z,8.15
2022-11-17T01:39:38.104Z,9.13
2022-11-17T01:42:14.642Z,7.50
2022-11-17T01:47:32.160Z,9.93
2022-11-17T01:50:07.190Z,5.93
2022-11-17T01:52:37.560Z,8.48
2022-11-17T01:55:09.059Z,8.82
2022-11-17T01:57:42.560Z,9.70
2022-11-17T02:00:11.679Z,7.60
2022-11-17T02:02:41.580Z,9.63
2022-11-17T02:05:20.762Z,8.20
2022-11-17T02:07:52.291Z,9.05
2022-11-17T02:10:20.628Z,7.47
2022-11-17T02:12:50.830Z,6.85
2022-11-17T02:15:18.920Z,7.25
2022-11-17T02:17:46.860Z,7.25
2022-11-17T02:20:18.180Z,6.03
2022-11-17T02:23:11.790Z,6.95
2022-11-17T02:26:03.420Z,7.53
2022-11-17T02:28:35.221Z,7.32
2022-11-17T02:31:12.330Z,9.02
2022-11-17T02:33:51.416Z,7.22
2022-11-17T02:36:29.085Z,7.20
2022-11-17T02:39:05.156Z,7.18
2022-11-17T02:41:41.337Z,6.15
2022-11-17T02:44:16.353Z,6.30
2022-11-17T02:46:47.176Z,8.95
2022-11-17T02:49:20.303Z,7.00
2022-11-17T02:51:52.759Z,7.05
2022-11-17T02:54:23.223Z,6.90
2022-11-17T02:56:51.348Z,6.57
2022-11-17T02:59:25.578Z,6.22
2022-11-17T03:02:29.269Z,5.53
2022-11-17T03:05:08.707Z,6.70
2022-11-17T03:07:59.701Z,5.78
2022-11-17T03:10:35.809Z,6.78
2022-11-17T03:13:12.927Z,5.40
2022-11-17T03:15:51.028Z,5.70
2022-11-17T03:18:24.868Z,4.80
2022-11-17T03:21:05.443Z,7.25
2022-11-17T03:23:41.670Z,4.75
2022-11-17T03:26:13.058Z,4.88
2022-11-17T03:28:44.016Z,4.70
2022-11-17T03:31:15.626Z,4.60
2022-11-17T03:33:45.847Z,6.75
2022-11-17T03:36:16.260Z,9.93
2022-11-17T03:38:50.786Z,4.47
2022-11-17T03:41:20.588Z,5.07
2022-11-17T03:43:52.116Z,6.35
2022-11-17T03:46:23.247Z,7.72
2022-11-17T03:48:57.318Z,24.98
2022-11-17T03:51:28.657Z,7.60
2022-11-17T03:53:56.937Z,17.65
2022-11-17T03:56:34.757Z,12.88
2022-11-17T03:59:04.666Z,15.82
2022-11-17T04:01:35.565Z,11.07
2022-11-17T04:04:03.678Z,9.38
2022-11-17T04:06:31.563Z,10.55
2022-11-17T04:08:59.498Z,8.85
2022-11-17T04:11:45.608Z,13.57
2022-11-17T04:14:31.966Z,7.40
2022-11-17T04:17:01.428Z,8.52
2022-11-17T04:19:29.251Z,11.57
2022-11-17T04:21:57.247Z,13.27
2022-11-17T04:24:25.257Z,9.63
2022-11-17T04:27:11.845Z,8.80
2022-11-17T04:29:40.036Z,14.85
2022-11-17T04:32:09.436Z,10.38
2022-11-17T04:34:39.106Z,7.07
2022-11-17T04:37:17.565Z,8.70
2022-11-17T04:39:46.140Z,5.35
2022-11-17T04:42:13.978Z,3.40
2022-11-17T04:44:42.056Z,5.00
2022-11-17T04:47:11.346Z,4.88
2022-11-17T04:49:39.437Z,2.50
2022-11-17T04:52:07.280Z,3.72
2022-11-17T04:54:35.287Z,2.55
2022-11-17T04:57:03.185Z,2.90
2022-11-17T04:59:31.167Z,2.85
2022-11-17T05:02:05.306Z,2.83
2022-11-17T05:04:53.870Z,4.25
2022-11-17T05:07:21.941Z,2.70
2022-11-17T05:09:49.917Z,3.83
2022-11-17T05:12:46.861Z,3.67
2022-11-17T05:15:37.465Z,3.65
2022-11-17T05:18:05.275Z,2.88
2022-11-17T05:20:35.128Z,4.82
2022-11-17T05:23:21.508Z,4.57
2022-11-17T05:25:53.416Z,5.82
2022-11-17T05:28:21.256Z,10.52
2022-11-17T05:30:49.006Z,4.38
2022-11-17T05:33:17.019Z,6.63
2022-11-17T05:35:46.115Z,11.00
2022-11-17T05:38:18.863Z,4.90
2022-11-17T05:40:46.610Z,5.97
2022-11-17T05:43:14.312Z,7.00
2022-11-17T05:45:42.240Z,8.57
2022-11-17T05:48:09.814Z,5.72
2022-11-17T05:50:37.661Z,5.93
2022-11-17T05:53:06.928Z,5.80
2022-11-17T05:55:35.007Z,4.10
2022-11-17T05:58:06.876Z,10.15
2022-11-17T06:00:36.506Z,6.40
2022-11-17T06:03:08.392Z,5.45
2022-11-17T06:05:36.110Z,5.95
2022-11-17T06:08:03.919Z,6.10
2022-11-17T06:10:34.676Z,5.32
2022-11-17T06:13:02.305Z,5.28
2022-11-17T06:15:30.559Z,4.88
2022-11-17T06:18:02.536Z,4.40
2022-11-17T06:20:34.899Z,7.13
2022-11-17T06:23:05.967Z,4.38
2022-11-17T06:25:36.979Z,5.28
2022-11-17T06:28:10.331Z,5.72
2022-11-17T06:30:39.021Z,5.65
2022-11-17T06:33:08.300Z,4.25
2022-11-17T06:35:36.722Z,5.88
2022-11-17T06:38:04.485Z,4.78
2022-11-17T06:40:32.252Z,4.70
2022-11-17T06:43:06.783Z,4.18
2022-11-17T06:45:34.530Z,4.85
2022-11-17T06:48:02.524Z,5.88
2022-11-17T06:50:30.150Z,4.00
2022-11-17T06:52:58.458Z,5.28
2022-11-17T06:55:26.647Z,4.53
2022-11-17T06:58:01.658Z,4.70
2022-11-17T07:00:30.804Z,4.07
2022-11-17T07:03:02.774Z,3.53
2022-11-17T07:05:30.961Z,4.55
2022-11-17T07:08:01.075Z,3.72
2022-11-17T07:10:29.855Z,4.18
2022-11-17T07:12:57.615Z,4.10
2022-11-17T07:15:27.121Z,5.63
2022-11-17T07:17:54.828Z,4.07
2022-11-17T07:20:22.670Z,4.07
2022-11-17T07:22:50.527Z,3.67
2022-11-17T07:25:22.225Z,4.70
2022-11-17T07:27:58.352Z,4.43
2022-11-17T07:30:27.865Z,4.47
2022-11-17T07:32:55.623Z,5.32
2022-11-17T07:35:23.303Z,4.65
2022-11-17T07:37:51.174Z,4.32
2022-11-17T07:40:19.253Z,6.25
2022-11-17T07:42:49.694Z,6.05
2022-11-17T07:45:18.328Z,5.15
2022-11-17T07:47:53.461Z,11.05
2022-11-17T07:50:21.687Z,8.68
2022-11-17T07:52:49.984Z,8.55
2022-11-17T07:55:18.208Z,5.25
2022-11-17T07:57:46.386Z,5.07
2022-11-17T08:00:15.456Z,6.85
2022-11-17T08:02:43.293Z,5.30
2022-11-17T08:05:12.678Z,6.88
2022-11-17T08:07:40.384Z,5.70
2022-11-17T08:10:08.820Z,4.45
2022-11-17T08:12:36.889Z,6.18
2022-11-17T08:15:05.374Z,4.72
2022-11-17T08:17:33.159Z,5.38
2022-11-17T08:20:01.105Z,3.78
2022-11-17T08:22:30.239Z,5.25
2022-11-17T08:24:58.180Z,5.28
2022-11-17T08:27:26.666Z,5.25
2022-11-17T08:29:54.446Z,7.75
2022-11-17T08:32:22.649Z,6.38
2022-11-17T08:34:50.491Z,5.47
2022-11-17T08:37:18.143Z,3.72
2022-11-17T08:39:47.443Z,3.70
2022-11-17T08:42:16.828Z,5.38
2022-11-17T08:44:45.454Z,6.88
2022-11-17T08:47:13.048Z,6.60
2022-11-17T08:49:40.871Z,7.03
2022-11-17T08:52:08.724Z,5.63
2022-11-17T08:54:36.589Z,7.25
2022-11-17T08:57:05.633Z,8.20
2022-11-17T08:59:33.383Z,5.63
2022-11-17T09:02:01.156Z,3.90
2022-11-17T09:04:28.874Z,4.97
2022-11-17T09:06:56.657Z,5.50
2022-11-17T09:09:24.702Z,4.78
2022-11-17T09:11:52.461Z,5.80
2022-11-17T09:14:21.752Z,5.45
2022-11-17T09:16:50.049Z,6.88
2022-11-17T09:19:18.610Z,5.82
2022-11-17T09:21:46.592Z,8.48
2022-11-17T09:24:14.845Z,9.35
2022-11-17T09:26:43.382Z,5.95
2022-11-17T09:29:11.494Z,8.27
2022-11-17T09:31:41.285Z,7.20
2022-11-17T09:34:09.628Z,8.02
2022-11-17T09:36:37.793Z,9.68
2022-11-17T09:39:06.093Z,9.95
2022-11-17T09:41:38.601Z,7.55
2022-11-17T09:44:16.100Z,8.93
2022-11-17T09:47:03.372Z,8.57
2022-11-17T09:52:13.542Z,8.25
2022-11-17T09:54:47.750Z,6.45
2022-11-17T09:57:25.281Z,9.05
2022-11-17T10:00:02.390Z,8.95
2022-11-17T10:02:34.604Z,9.77
2022-11-17T10:05:03.091Z,9.15
2022-11-17T10:07:33.931Z,6.95
2022-11-17T10:10:06.211Z,14.05
2022-11-17T10:12:42.347Z,10.95
2022-11-17T10:15:26.011Z,10.25
2022-11-17T10:17:55.720Z,9.63
2022-11-17T10:20:23.891Z,12.40
2022-11-17T10:22:54.285Z,11.35
2022-11-17T10:25:35.552Z,12.80
2022-11-17T10:28:04.114Z,7.68
2022-11-17T10:30:32.225Z,9.25
2022-11-17T10:33:02.781Z,9.38
2022-11-17T10:35:32.766Z,7.35
2022-11-17T10:38:02.939Z,10.32
2022-11-17T10:40:32.331Z,9.68
2022-11-17T10:43:26.648Z,9.02
2022-11-17T10:45:57.256Z,10.93
2022-11-17T10:48:29.945Z,8.68
2022-11-17T10:50:59.737Z,10.35
2022-11-17T10:53:37.044Z,11.13
2022-11-17T10:56:16.124Z,11.75
2022-11-17T10:59:02.662Z,11.90
2022-11-17T11:01:32.943Z,11.32
2022-11-17T11:04:03.675Z,11.85
2022-11-17T11:06:33.416Z,10.35
2022-11-17T11:09:05.055Z,9.10
2022-11-17T11:11:45.385Z,10.10
2022-11-17T11:14:19.803Z,14.07
2022-11-17T11:16:50.612Z,13.93
2022-11-17T11:19:21.617Z,10.77
2022-11-17T11:22:21.424Z,12.93
2022-11-17T11:24:58.482Z,10.85
2022-11-17T11:27:42.403Z,12.48
2022-11-17T11:30:12.418Z,11.32
2022-11-17T11:32:56.833Z,11.05
2022-11-17T11:36:03.070Z,10.90
2022-11-17T11:38:50.554Z,11.57
2022-11-17T11:41:31.884Z,10.32
2022-11-17T11:44:17.960Z,9.57
2022-11-17T11:46:53.626Z,10.13
2022-11-17T11:49:32.829Z,12.75
2022-11-17T11:52:03.352Z,14.07
2022-11-17T11:54:41.544Z,11.85
2022-11-17T11:57:14.295Z,12.73
2022-11-17T11:59:50.965Z,12.95
2022-11-17T12:05:00.284Z,10.48
2022-11-17T12:07:35.186Z,10.13
2022-11-17T12:10:11.366Z,9.02
2022-11-17T12:12:41.474Z,10.05
2022-11-17T12:15:29.989Z,7.68
2022-11-17T12:18:05.398Z,7.95
2022-11-17T12:21:12.045Z,8.10
2022-11-17T12:24:08.717Z,8.68
2022-11-17T12:26:39.196Z,8.85
2022-11-17T12:29:46.783Z,8.60
2022-11-17T12:32:53.405Z,10.55
2022-11-17T12:35:27.137Z,7.43
2022-11-17T12:38:37.325Z,7.85
2022-11-17T12:41:06.670Z,6.15
2022-11-17T12:43:36.284Z,8.20
2022-11-17T12:46:27.175Z,7.03
2022-11-17T12:49:03.990Z,8.90
2022-11-17T12:51:39.784Z,8.50
2022-11-17T12:54:21.065Z,7.77
2022-11-17T12:56:57.834Z,7.20
2022-11-17T13:00:02.615Z,7.55
2022-11-17T13:02:53.441Z,9.55
2022-11-17T13:05:31.065Z,8.10
2022-11-17T13:08:21.455Z,7.05
2022-11-17T13:10:50.197Z,7.57
2022-11-17T13:13:19.843Z,7.15
2022-11-17T13:15:52.634Z,5.68
2022-11-17T13:18:30.885Z,4.97
2022-11-17T13:20:59.563Z,6.57
2022-11-17T13:23:28.894Z,7.47
2022-11-17T13:26:10.554Z,8.25
2022-11-17T13:28:38.624Z,11.95
2022-11-17T13:31:14.153Z,11.15
2022-11-17T13:33:42.109Z,7.65
2022-11-17T13:36:17.933Z,7.18
2022-11-17T13:39:21.650Z,8.98
2022-11-17T13:41:52.254Z,6.50
2022-11-17T13:44:24.155Z,5.53
2022-11-17T13:46:53.546Z,7.78
2022-11-17T13:49:34.333Z,7.75
2022-11-17T13:52:02.490Z,5.75
2022-11-17T13:54:30.627Z,7.00
2022-11-17T13:57:04.316Z,6.25
2022-11-17T13:59:35.085Z,5.43
2022-11-17T14:02:31.282Z,6.63
2022-11-17T14:05:23.195Z,6.55
2022-11-17T14:07:51.643Z,8.50
2022-11-17T14:10:34.926Z,7.10
2022-11-17T14:13:30.103Z,5.53
2022-11-17T14:16:00.207Z,5.50
2022-11-17T14:18:32.799Z,6.40
2022-11-17T14:21:13.344Z,6.78
2022-11-17T14:23:42.030Z,7.18
2022-11-17T14:26:20.344Z,8.13
2022-11-17T14:28:49.431Z,7.40
2022-11-17T14:31:17.173Z,7.03
2022-11-17T14:33:46.766Z,5.97
2022-11-17T14:36:17.483Z,5.25
2022-11-17T14:38:46.151Z,6.75
2022-11-17T14:41:15.814Z,5.70
2022-11-17T14:43:43.646Z,6.63
2022-11-17T14:46:19.450Z,9.05
2022-11-17T14:48:48.677Z,9.80
2022-11-17T14:51:16.466Z,7.90
2022-11-17T14:53:44.399Z,11.70
2022-11-17T14:56:14.628Z,8.35
2022-11-17T14:58:42.603Z,13.57
2022-11-17T15:01:11.866Z,9.57
2022-11-17T15:03:39.619Z,8.63
2022-11-17T15:06:12.111Z,9.52
2022-11-17T15:08:44.311Z,11.53
2022-11-17T15:11:16.073Z,12.00
2022-11-17T15:13:44.095Z,11.27
2022-11-17T15:16:12.313Z,11.40
2022-11-17T15:18:40.352Z,12.63
2022-11-17T15:21:11.220Z,10.93
2022-11-17T15:23:40.393Z,12.30
2022-11-17T15:26:10.602Z,13.55
2022-11-17T15:28:38.481Z,11.88
2022-11-17T15:31:11.692Z,10.95
2022-11-17T15:33:40.982Z,11.55
2022-11-17T15:36:11.973Z,9.57
2022-11-17T15:38:40.712Z,11.77
2022-11-17T15:41:10.522Z,12.13
2022-11-17T15:43:40.251Z,10.90
2022-11-17T15:46:09.524Z,22.63
2022-11-17T15:48:44.474Z,13.10
2022-11-17T15:51:15.732Z,12.38
2022-11-17T15:53:44.781Z,13.75
2022-11-17T15:56:14.432Z,11.40
2022-11-17T15:58:43.593Z,11.48
2022-11-17T16:01:13.671Z,13.88
2022-11-17T16:03:43.042Z,12.52
2022-11-17T16:06:13.752Z,11.00
2022-11-17T16:08:41.662Z,7.88
2022-11-17T16:11:10.706Z,12.00
2022-11-17T16:13:39.105Z,10.80
2022-11-17T16:16:08.173Z,11.23
2022-11-17T16:18:38.824Z,9.57
2022-11-17T16:21:08.405Z,9.18
2022-11-17T16:23:42.462Z,13.65
2022-11-17T16:26:11.352Z,12.52
2022-11-17T16:28:39.543Z,13.43
2022-11-17T16:31:16.042Z,12.18
2022-11-17T16:33:48.977Z,14.85
2022-11-17T16:36:17.201Z,10.15
2022-11-17T16:39:00.539Z,12.73
2022-11-17T16:41:31.670Z,13.93
2022-11-17T16:44:15.697Z,18.15
2022-11-17T16:46:44.913Z,15.77
2022-11-17T16:49:14.531Z,19.02
2022-11-17T16:51:47.520Z,12.45
2022-11-17T16:54:18.129Z,19.85
2022-11-17T16:56:46.167Z,13.57
2022-11-17T16:59:14.951Z,16.50
2022-11-17T17:01:42.972Z,20.58
2022-11-17T17:04:12.583Z,14.85
2022-11-17T17:06:41.111Z,14.35
2022-11-17T17:09:10.328Z,15.50
2022-11-17T17:11:39.589Z,16.40
2022-11-17T17:14:09.122Z,14.63
2022-11-17T17:16:40.315Z,17.95
2022-11-17T17:19:11.695Z,16.00
2022-11-17T17:21:41.656Z,11.18
2022-11-17T17:24:10.261Z,15.77
2022-11-17T17:26:40.771Z,15.85
2022-11-17T17:29:09.014Z,18.95
2022-11-17T17:31:51.804Z,17.88
2022-11-17T17:34:19.783Z,19.48
2022-11-17T17:36:47.507Z,15.77
2022-11-17T17:39:16.065Z,17.02
2022-11-17T17:41:46.165Z,20.55
2022-11-17T17:44:16.724Z,20.02
2022-11-17T17:46:45.200Z,20.25
2022-11-17T17:49:13.676Z,17.35
2022-11-17T17:51:44.441Z,16.80
2022-11-17T17:54:16.724Z,16.80
2022-11-17T17:56:47.107Z,19.30
2022-11-17T17:59:16.149Z,22.48
2022-11-17T18:01:46.355Z,21.42
2022-11-17T18:04:16.103Z,27.00
2022-11-17T18:06:48.901Z,28.95
2022-11-17T18:09:20.493Z,24.27
2022-11-17T18:11:51.279Z,26.38
2022-11-17T18:14:24.570Z,22.88
2022-11-17T18:16:53.562Z,24.17
2022-11-17T18:19:21.306Z,21.73
2022-11-17T18:21:49.148Z,19.48
2022-11-17T18:24:16.806Z,20.75
2022-11-17T18:26:51.539Z,17.13
2022-11-17T18:29:19.805Z,19.70
2022-11-17T18:31:49.533Z,19.83
2022-11-17T18:34:21.284Z,19.85
2022-11-17T18:36:49.687Z,24.65
2022-11-17T18:39:18.351Z,20.63
2022-11-17T18:41:47.255Z,20.67
2022-11-17T18:44:21.318Z,21.83
2022-11-17T18:47:01.194Z,20.38
2022-11-17T18:49:31.533Z,18.52
2022-11-17T18:51:59.237Z,18.05
2022-11-17T18:54:27.063Z,21.95
2022-11-17T18:56:54.726Z,27.35
2022-11-17T18:59:24.011Z,21.23
2022-11-17T19:01:52.465Z,23.88
2022-11-17T19:04:20.345Z,24.60
2022-11-17T19:06:48.001Z,21.98
2022-11-17T19:09:16.408Z,20.27
2022-11-17T19:11:44.627Z,19.25
2022-11-17T19:14:12.420Z,24.30
2022-11-17T19:16:44.752Z,27.23
2022-11-17T19:19:14.248Z,23.75
2022-11-17T19:21:42.871Z,19.20
2022-11-17T19:24:11.437Z,23.58
2022-11-17T19:26:39.735Z,19.38
2022-11-17T19:29:21.315Z,18.55
2022-11-17T19:31:52.699Z,21.30
2022-11-17T19:34:20.660Z,20.40
2022-11-17T19:36:48.466Z,20.02
2022-11-17T19:39:17.232Z,18.13
2022-11-17T19:41:54.389Z,20.33
2022-11-17T19:44:22.442Z,20.77
2022-11-17T19:46:53.542Z,16.17
2022-11-17T19:49:21.575Z,17.23
2022-11-17T19:51:49.392Z,14.18
2022-11-17T19:54:17.442Z,15.77
2022-11-17T19:56:45.272Z,14.80
2022-11-17T19:59:16.334Z,20.52
2022-11-17T20:01:45.609Z,20.23
2022-11-17T20:04:15.442Z,17.05
2022-11-17T20:06:43.916Z,17.23
2022-11-17T20:09:13.393Z,18.35
2022-11-17T20:11:42.089Z,16.27
2022-11-17T20:14:10.982Z,19.73
2022-11-17T20:16:39.139Z,20.95
2022-11-17T20:19:07.342Z,18.15
2022-11-17T20:21:37.122Z,21.85
2022-11-17T20:24:05.144Z,19.70
2022-11-17T20:26:35.840Z,20.25
2022-11-17T20:29:03.815Z,18.45
2022-11-17T20:31:34.229Z,20.08
2022-11-17T20:34:03.784Z,19.83
2022-11-17T20:36:33.520Z,18.02
2022-11-17T20:39:04.720Z,16.85
2022-11-17T20:41:32.789Z,17.20
2022-11-17T20:44:02.753Z,17.50
2022-11-17T20:46:30.897Z,15.02
2022-11-17T20:48:59.227Z,15.43
2022-11-17T20:51:27.275Z,13.43
2022-11-17T20:53:55.224Z,13.35
2022-11-17T20:56:24.546Z,13.93
2022-11-17T20:58:52.481Z,21.75
2022-11-17T21:01:24.832Z,14.63
2022-11-17T21:03:53.186Z,15.32
2022-11-17T21:06:23.631Z,16.63
2022-11-17T21:08:53.041Z,15.98
2022-11-17T21:11:42.876Z,18.05
2022-11-17T21:14:12.340Z,17.40
2022-11-17T21:16:42.303Z,16.05
2022-11-17T21:19:10.741Z,18.88
2022-11-17T21:21:38.881Z,15.35
2022-11-17T21:24:08.260Z,17.27
2022-11-17T21:26:38.422Z,15.57
2022-11-17T21:29:07.250Z,16.10
2022-11-17T21:31:35.564Z,17.77
2022-11-17T21:34:06.368Z,15.25
2022-11-17T21:36:35.872Z,15.25
2022-11-17T21:39:04.704Z,14.85
2022-11-17T21:41:38.672Z,13.02
2022-11-17T21:44:08.401Z,12.50
2022-11-17T21:46:36.649Z,15.27
2022-11-17T21:49:05.055Z,16.52
2022-11-17T21:51:34.400Z,18.83
2022-11-17T21:54:04.708Z,18.20
2022-11-17T21:56:33.111Z,13.23
2022-11-17T21:59:03.211Z,16.23
2022-11-17T22:01:34.188Z,19.33
2022-11-17T22:04:02.377Z,18.40
2022-11-17T22:06:30.797Z,17.02
2022-11-17T22:09:00.166Z,16.00
2022-11-17T22:11:36.852Z,17.90
2022-11-17T22:14:07.554Z,19.58
2022-11-17T22:16:39.091Z,18.73
2022-11-17T22:19:08.217Z,18.42
2022-11-17T22:21:36.919Z,19.25
2022-11-17T22:24:05.952Z,17.15
2022-11-17T22:26:36.178Z,21.08
2022-11-17T22:29:04.763Z,19.23
2022-11-17T22:31:32.847Z,19.80
2022-11-17T22:34:02.201Z,21.10
2022-11-17T22:36:30.387Z,20.63
2022-11-17T22:38:58.358Z,19.75
2022-11-17T22:41:26.592Z,16.55
2022-11-17T22:43:56.081Z,17.00
2022-11-17T22:46:25.904Z,16.10
2022-11-17T22:48:55.082Z,15.90
2022-11-17T22:51:48.561Z,16.90
2022-11-17T22:54:16.572Z,14.50
2022-11-17T22:56:44.404Z,14.98
2022-11-17T22:59:12.392Z,15.93
2022-11-17T23:01:40.211Z,16.45
2022-11-17T23:04:08.377Z,16.10
2022-11-17T23:06:37.792Z,13.98
2022-11-17T23:09:05.953Z,16.23
2022-11-17T23:11:38.307Z,12.63
2022-11-17T23:14:08.334Z,14.90
2022-11-17T23:16:37.015Z,15.73
2022-11-17T23:19:05.945Z,16.38
2022-11-17T23:21:34.201Z,14.98
2022-11-17T23:24:05.043Z,13.52
2022-11-17T23:26:33.193Z,11.63
2022-11-17T23:29:01.143Z,12.50
2022-11-17T23:31:29.843Z,11.57
2022-11-17T23:33:57.994Z,11.85
2022-11-17T23:36:26.173Z,12.77
2022-11-17T23:38:56.926Z,10.98
2022-11-17T23:41:26.833Z,13.27
2022-11-17T23:43:55.045Z,13.45
2022-11-17T23:46:25.462Z,13.45
2022-11-17T23:48:54.691Z,14.88
2022-11-17T23:51:24.641Z,12.80
2022-11-17T23:53:53.065Z,12.13
2022-11-17T23:56:21.905Z,10.75
2022-11-17T23:58:52.282Z,11.77
